Time;durP1;ratioP1;P1;durP2;ratioP2;P2;SDS_P1;SDS_P2;PMS_P1;PMS_P2;Temp;Humidity;BMP_temperature;BMP_pressure;BME280_temperature;BME280_humidity;BME280_pressure;Samples;Min_cycle;Max_cycle;Signal;HPM_P1;HPM_P2
2022/08/20 00:00:25;;;;;;;16.82;11.05;;;;;;;20.70;70.71;96892.95;1745874;81;27427;-79
2022/08/20 00:02:58;;;;;;;18.67;11.57;;;;;;;20.70;70.69;96891.58;1745692;81;25656;-78
2022/08/20 00:05:30;;;;;;;17.13;11.70;;;;;;;20.69;70.68;96887.20;1745916;81;25775;-79
2022/08/20 00:07:57;;;;;;;21.68;13.13;;;;;;;20.55;70.75;96880.73;1745964;81;25682;-78
2022/08/20 00:10:26;;;;;;;20.08;11.75;;;;;;;20.49;71.01;96892.87;1745906;81;26675;-79
2022/08/20 00:12:54;;;;;;;16.65;12.00;;;;;;;20.52;71.11;96895.59;1745878;82;27375;-78
2022/08/20 00:15:25;;;;;;;15.75;12.55;;;;;;;20.54;71.21;96892.81;1745852;81;25674;-78
2022/08/20 00:17:53;;;;;;;17.25;12.23;;;;;;;20.54;71.26;96883.77;1746015;81;25275;-79
2022/08/20 00:20:23;;;;;;;19.17;12.80;;;;;;;20.49;71.34;96874.50;1745940;81;26547;-79
2022/08/20 00:22:50;;;;;;;15.83;11.33;;;;;;;20.45;71.42;96880.83;1745939;82;25248;-79
2022/08/20 00:25:17;;;;;;;18.77;12.88;;;;;;;20.32;71.51;96880.91;1745766;81;28166;-79
2022/08/20 00:27:44;;;;;;;19.92;11.60;;;;;;;20.25;71.62;96876.31;1745900;81;25783;-78
2022/08/20 00:30:12;;;;;;;18.77;11.63;;;;;;;20.19;71.72;96873.88;1745940;81;25651;-79
2022/08/20 00:32:50;;;;;;;16.75;11.80;;;;;;;20.15;71.87;96875.02;1745950;81;26398;-78
2022/08/20 00:35:20;;;;;;;21.07;12.63;;;;;;;20.18;72.07;96870.31;1688541;84;25803;-78
2022/08/20 00:37:48;;;;;;;17.12;12.35;;;;;;;20.16;72.12;96863.51;1688504;84;27370;-78
2022/08/20 00:40:18;;;;;;;17.85;11.45;;;;;;;20.21;72.19;96868.38;1688253;84;25771;-78
2022/08/20 00:42:50;;;;;;;18.48;13.20;;;;;;;20.24;72.19;96864.26;1688468;84;25835;-78
2022/08/20 00:45:18;;;;;;;17.60;12.13;;;;;;;20.26;72.20;96858.77;1688758;84;25818;-78
2022/08/20 00:47:45;;;;;;;14.70;12.13;;;;;;;20.29;72.18;96855.43;1688555;83;25827;-78
2022/08/20 00:50:16;;;;;;;18.07;12.65;;;;;;;20.30;72.12;96846.66;1688248;84;28257;-78
2022/08/20 00:52:47;;;;;;;17.20;12.67;;;;;;;20.30;72.10;96868.03;1688804;83;25545;-78
2022/08/20 00:55:16;;;;;;;19.27;12.90;;;;;;;20.32;72.15;96878.16;1688778;84;25829;-78
2022/08/20 00:57:48;;;;;;;14.07;11.63;;;;;;;20.34;72.29;96883.36;1682145;84;25810;-78
2022/08/20 01:00:26;;;;;;;15.95;11.90;;;;;;;20.24;72.24;96871.93;1599868;89;25931;-79
2022/08/20 01:02:54;;;;;;;17.75;12.18;;;;;;;20.12;72.33;96867.36;1547938;92;27458;-78
2022/08/20 01:05:23;;;;;;;18.37;13.00;;;;;;;20.12;72.48;96868.73;1547853;92;25860;-78
2022/08/20 01:07:52;;;;;;;17.30;12.40;;;;;;;20.13;72.53;96862.97;1547941;91;25824;-78
2022/08/20 01:10:24;;;;;;;18.67;13.35;;;;;;;20.14;72.58;96853.66;1547912;91;26556;-78
2022/08/20 01:12:56;;;;;;;18.30;12.85;;;;;;;20.17;72.62;96845.94;1502128;95;25793;-78
2022/08/20 01:15:27;;;;;;;16.60;12.93;;;;;;;20.15;72.64;96866.80;1489105;96;28661;-78
2022/08/20 01:17:57;;;;;;;18.20;12.78;;;;;;;20.13;72.67;96877.22;1502012;95;26686;-78
2022/08/20 01:20:28;;;;;;;15.50;12.15;;;;;;;20.09;72.77;96866.55;1489004;96;25854;-79
2022/08/20 01:23:33;;;;;;;19.73;12.58;;;;;;;20.06;72.84;96858.34;1502432;95;25869;-79
2022/08/20 01:26:16;;;;;;;19.60;13.22;;;;;;;20.07;72.93;96872.31;1488933;96;25785;-79
2022/08/20 01:28:54;;;;;;;18.27;12.13;;;;;;;20.08;72.96;96873.95;1502289;95;27483;-78
2022/08/20 01:31:27;;;;;;;20.30;12.85;;;;;;;20.06;73.03;96865.75;1444830;99;25888;-78
2022/08/20 01:33:57;;;;;;;19.62;12.23;;;;;;;20.05;73.05;96862.73;1447109;99;25406;-78
2022/08/20 01:36:31;;;;;;;16.40;12.70;;;;;;;20.05;73.01;96870.95;1437162;99;25795;-78
2022/08/20 01:38:59;;;;;;;19.95;13.15;;;;;;;20.06;72.99;96878.89;1447131;97;25824;-80
2022/08/20 01:42:01;;;;;;;17.42;12.35;;;;;;;20.00;73.08;96869.64;1437215;99;28454;-78
2022/08/20 01:44:29;;;;;;;17.13;12.27;;;;;;;19.92;73.19;96872.44;1425183;100;25945;-77
2022/08/20 01:46:56;;;;;;;19.70;13.00;;;;;;;19.92;73.44;96875.73;1424891;100;25882;-79
2022/08/20 01:49:30;;;;;;;19.07;13.30;;;;;;;19.89;73.49;96869.44;1424981;100;25954;-78
2022/08/20 01:52:00;;;;;;;17.52;12.90;;;;;;;19.81;73.55;96862.63;1404091;102;25889;-78
2022/08/20 01:54:27;;;;;;;21.95;13.88;;;;;;;19.76;73.71;96859.38;1416923;101;27483;-79
2022/08/20 01:57:15;;;;;;;21.35;13.70;;;;;;;19.78;73.79;96862.66;1416102;99;25881;-78
2022/08/20 01:59:42;;;;;;;16.70;12.98;;;;;;;19.74;73.78;96868.98;1461978;95;25850;-78
2022/08/20 02:02:11;;;;;;;19.02;13.48;;;;;;;19.74;73.84;96878.02;1488385;96;25935;-78
2022/08/20 02:04:39;;;;;;;15.23;13.28;;;;;;;19.76;73.86;96875.81;1489735;96;25805;-78
2022/08/20 02:07:10;;;;;;;19.77;13.75;;;;;;;19.76;74.01;96875.00;1489613;95;27439;-78
2022/08/20 02:09:38;;;;;;;20.80;13.98;;;;;;;19.69;73.98;96872.55;1519430;92;25794;-78
2022/08/20 02:12:08;;;;;;;18.65;13.30;;;;;;;19.69;74.10;96876.66;1549482;91;25832;-78
2022/08/20 02:14:41;;;;;;;18.77;12.80;;;;;;;19.71;74.09;96885.41;1578994;90;25838;-78
2022/08/20 02:17:09;;;;;;;15.32;12.98;;;;;;;19.71;74.12;96886.78;1578967;90;25944;-79
2022/08/20 02:19:43;;;;;;;19.42;13.08;;;;;;;19.65;74.15;96879.71;1578615;90;27719;-78
2022/08/20 02:22:42;;;;;;;21.07;13.05;;;;;;;19.65;74.19;96886.56;1577049;90;25812;-79
2022/08/20 02:25:10;;;;;;;15.48;12.63;;;;;;;19.67;74.20;96886.28;1508828;95;25799;-79
2022/08/20 02:27:41;;;;;;;14.40;12.18;;;;;;;19.67;74.23;96889.84;1529913;90;25864;-78
2022/08/20 02:30:13;;;;;;;19.85;13.13;;;;;;;19.67;74.23;96893.13;1585832;90;25816;-79
2022/08/20 02:32:41;;;;;;;18.40;13.20;;;;;;;19.64;74.24;96893.13;1585952;89;27739;-78
2022/08/20 02:35:12;;;;;;;14.83;13.13;;;;;;;19.65;74.26;96892.58;1585621;90;25775;-78
2022/08/20 02:37:41;;;;;;;22.40;13.10;;;;;;;19.61;74.26;96888.76;1585834;90;25865;-78
2022/08/20 02:40:12;;;;;;;19.75;13.08;;;;;;;19.59;74.33;96889.03;1585861;90;25963;-78
2022/08/20 02:42:41;;;;;;;15.53;13.80;;;;;;;19.57;74.42;96892.59;1585920;89;25831;-78
2022/08/20 02:45:13;;;;;;;18.32;14.03;;;;;;;19.50;74.56;96894.02;1585897;90;28083;-78
2022/08/20 02:47:43;;;;;;;17.77;14.07;;;;;;;19.49;74.66;96895.93;1586804;88;26459;-78
2022/08/20 02:50:15;;;;;;;18.15;13.00;;;;;;;19.50;74.68;96889.36;1612454;88;25960;-78
2022/08/20 02:52:42;;;;;;;19.60;14.50;;;;;;;19.53;74.76;96889.36;1612673;87;25723;-79
2022/08/20 02:55:11;;;;;;;25.60;15.20;;;;;;;19.54;74.82;96875.39;1619679;84;25757;-79
2022/08/20 02:57:38;;;;;;;17.65;13.83;;;;;;;19.55;74.86;96874.84;1703391;83;28115;-79
2022/08/20 03:00:10;;;;;;;16.87;13.08;;;;;;;19.54;74.93;96870.47;1715991;83;25723;-78
2022/08/20 03:02:36;;;;;;;;;;;;;;;19.49;74.90;96865.00;1685421;85;25771;-79
2022/08/20 03:05:04;;;;;;;23.02;13.98;;;;;;;19.46;75.26;96863.61;1683154;85;25868;-78
2022/08/20 03:07:31;;;;;;;15.98;12.85;;;;;;;19.46;75.05;96863.61;1683038;85;25534;-78
2022/08/20 03:09:57;;;;;;;17.00;14.10;;;;;;;19.47;75.04;96852.93;1682965;85;27980;-78
2022/08/20 03:12:24;;;;;;;19.48;14.20;;;;;;;19.44;75.08;96847.46;1683123;85;26507;-79
2022/08/20 03:14:50;;;;;;;20.37;13.05;;;;;;;19.45;75.06;96849.65;1683305;85;25767;-78
2022/08/20 03:17:17;;;;;;;19.75;12.82;;;;;;;19.46;75.03;96851.84;1682891;85;26689;-78
2022/08/20 03:19:43;;;;;;;16.73;12.98;;;;;;;19.44;75.02;96847.46;1683330;85;26300;-78
2022/08/20 03:22:10;;;;;;;15.30;12.80;;;;;;;19.41;75.10;96843.13;1683273;83;28225;-78
2022/08/20 03:24:36;;;;;;;16.37;13.03;;;;;;;19.36;75.15;96845.32;1683016;85;25796;-78
2022/08/20 03:27:04;;;;;;;16.70;13.03;;;;;;;19.37;75.24;96848.33;1682883;85;25335;-79
2022/08/20 03:29:30;;;;;;;18.48;12.98;;;;;;;19.35;75.29;96854.63;1683171;85;25769;-78
2022/08/20 03:31:57;;;;;;;20.17;13.75;;;;;;;19.35;75.37;96842.86;1683185;85;26011;-78
2022/08/20 03:34:24;;;;;;;16.27;13.75;;;;;;;19.34;75.40;96844.78;1683107;83;27370;-77
2022/08/20 03:36:50;;;;;;;15.85;12.23;;;;;;;19.33;75.41;96836.30;1682937;85;25838;-78
2022/08/20 03:39:17;;;;;;;24.32;13.13;;;;;;;19.34;75.39;96836.57;1683135;85;25839;-76
2022/08/20 03:41:43;;;;;;;17.42;13.58;;;;;;;19.35;75.39;96832.73;1689426;83;25941;-76
2022/08/20 03:44:10;;;;;;;15.32;13.30;;;;;;;19.35;75.38;96822.34;1690991;83;25749;-76
2022/08/20 03:46:38;;;;;;;25.60;14.18;;;;;;;19.36;75.44;96821.24;1683204;85;28620;-76
2022/08/20 03:49:04;;;;;;;16.17;13.58;;;;;;;19.35;75.47;96818.23;1683203;85;25913;-76
2022/08/20 03:51:32;;;;;;;20.02;14.55;;;;;;;19.32;75.52;96827.03;1683089;85;25804;-76
2022/08/20 03:53:58;;;;;;;17.77;14.35;;;;;;;19.30;75.58;96826.48;1683183;85;26477;-76
2022/08/20 03:56:26;;;;;;;23.80;14.78;;;;;;;19.27;75.71;96823.75;1683214;84;25876;-76
2022/08/20 03:58:53;;;;;;;22.67;17.00;;;;;;;19.21;75.92;96836.35;1673640;84;27428;-76
2022/08/20 04:01:20;;;;;;;22.67;15.23;;;;;;;19.13;76.04;96830.10;1673638;85;25759;-76
2022/08/20 04:03:46;;;;;;;18.70;14.75;;;;;;;19.10;76.15;96821.90;1673483;85;25799;-76
2022/08/20 04:06:13;;;;;;;22.67;14.45;;;;;;;19.13;76.27;96820.53;1695565;83;26291;-77
2022/08/20 04:08:40;;;;;;;23.60;14.90;;;;;;;19.18;76.30;96815.05;1708520;83;25749;-76
2022/08/20 04:11:07;;;;;;;19.75;13.95;;;;;;;19.22;76.28;96821.58;1708525;83;27531;-76
2022/08/20 04:13:34;;;;;;;17.23;14.28;;;;;;;19.27;76.28;96824.30;1708441;83;25710;-76
2022/08/20 04:16:03;;;;;;;17.90;13.88;;;;;;;19.29;76.27;96819.38;1708682;83;25866;-76
2022/08/20 04:18:29;;;;;;;20.85;14.38;;;;;;;19.31;76.28;96820.73;1708322;83;25747;-76
2022/08/20 04:20:56;;;;;;;18.98;14.38;;;;;;;19.36;76.26;96819.88;1708768;83;25684;-76
2022/08/20 04:23:22;;;;;;;16.65;13.55;;;;;;;19.38;76.27;96817.67;1708589;83;27351;-76
2022/08/20 04:25:49;;;;;;;17.67;14.20;;;;;;;19.40;76.29;96823.14;1708183;83;25755;-76
2022/08/20 04:28:26;;;;;;;19.48;13.55;;;;;;;19.41;76.38;96810.28;1708452;83;25696;-76
2022/08/20 04:30:55;;;;;;;19.75;13.90;;;;;;;19.39;76.38;96808.37;1708595;83;25698;-76
2022/08/20 04:33:24;;;;;;;17.20;14.05;;;;;;;19.41;76.38;96804.81;1708570;83;25427;-76
2022/08/20 04:35:53;;;;;;;17.10;13.62;;;;;;;19.42;76.37;96808.63;1708588;83;27455;-76
2022/08/20 04:38:22;;;;;;;20.85;13.88;;;;;;;19.42;76.45;96802.34;1708546;83;25822;-76
2022/08/20 04:40:59;;;;;;;19.77;14.50;;;;;;;19.37;76.46;96801.80;1708442;83;25819;-76
2022/08/20 04:43:35;;;;;;;18.95;13.88;;;;;;;19.38;76.54;96797.16;1708388;83;25567;-76
2022/08/20 04:46:07;;;;;;;18.37;14.70;;;;;;;19.41;76.55;96804.81;1624463;87;26738;-76
2022/08/20 04:48:36;;;;;;;18.67;14.10;;;;;;;19.44;76.57;96806.98;1624536;88;27380;-76
2022/08/20 04:51:02;;;;;;;20.55;14.78;;;;;;;19.48;76.58;96808.04;1624167;88;25843;-76
2022/08/20 04:53:29;;;;;;;19.95;14.25;;;;;;;19.52;76.55;96811.89;1624185;88;25806;-76
2022/08/20 04:55:59;;;;;;;21.15;13.98;;;;;;;19.56;76.48;96800.63;1624369;88;25833;-76
2022/08/20 04:58:30;;;;;;;18.92;14.40;;;;;;;19.62;76.36;96802.23;1628840;87;25855;-76
2022/08/20 05:01:05;;;;;;;15.47;13.47;;;;;;;19.66;76.38;96794.29;1631348;87;27421;-76
2022/08/20 05:03:31;;;;;;;17.27;13.18;;;;;;;19.70;76.51;96803.00;1609331;87;25777;-76
2022/08/20 05:06:00;;;;;;;18.17;14.80;;;;;;;19.74;76.54;96802.70;1594097;89;25762;-76
2022/08/20 05:08:28;;;;;;;16.80;13.68;;;;;;;19.77;76.52;96796.67;1609830;89;26383;-76
2022/08/20 05:10:56;;;;;;;16.85;13.13;;;;;;;19.83;76.59;96789.22;1594187;89;25790;-76
2022/08/20 05:13:24;;;;;;;19.20;14.85;;;;;;;19.89;76.59;96780.43;1609664;89;27417;-76
2022/08/20 05:15:51;;;;;;;20.40;13.53;;;;;;;19.94;76.66;96774.34;1594043;89;25761;-76
2022/08/20 05:18:22;;;;;;;16.97;12.88;;;;;;;19.94;76.56;96768.05;1609330;89;36397;-76
2022/08/20 05:20:49;;;;;;;25.20;13.72;;;;;;;19.95;76.59;96760.09;1593710;90;26654;-76
2022/08/20 05:23:18;;;;;;;21.50;12.98;;;;;;;20.00;76.59;96764.17;1609617;88;26395;-76
2022/08/20 05:25:51;;;;;;;18.65;13.30;;;;;;;20.04;76.58;96761.95;1593905;89;26507;-76
2022/08/20 05:28:25;;;;;;;17.42;13.38;;;;;;;20.11;76.59;96760.24;1609542;89;25851;-76
2022/08/20 05:30:53;;;;;;;19.32;13.88;;;;;;;20.17;76.42;96764.55;1594110;89;25813;-76
2022/08/20 05:33:22;;;;;;;21.45;14.05;;;;;;;20.24;76.39;96758.75;1609780;89;25856;-76
2022/08/20 05:35:51;;;;;;;18.60;13.78;;;;;;;20.26;76.22;96753.25;1605629;88;25310;-76
2022/08/20 05:38:23;;;;;;;19.80;13.55;;;;;;;20.32;76.18;96753.45;1649222;86;28819;-76
2022/08/20 05:40:51;;;;;;;19.50;13.58;;;;;;;20.38;76.06;96761.94;1649100;86;25356;-77
2022/08/20 05:43:18;;;;;;;20.40;14.33;;;;;;;20.43;76.08;96760.50;1649140;86;26090;-76
2022/08/20 05:45:50;;;;;;;18.37;14.00;;;;;;;20.51;75.94;96766.48;1649083;86;26725;-76
2022/08/20 05:48:20;;;;;;;26.17;15.03;;;;;;;20.56;75.89;96768.59;1649082;86;25755;-76
2022/08/20 05:50:49;;;;;;;22.45;13.75;;;;;;;20.64;75.82;96764.42;1649133;86;28342;-76
2022/08/20 05:53:17;;;;;;;22.02;13.93;;;;;;;20.70;75.83;96765.42;1649026;86;25615;-76
2022/08/20 05:55:45;;;;;;;18.98;12.88;;;;;;;20.75;76.01;96767.30;1649123;86;25839;-76
2022/08/20 05:58:21;;;;;;;18.85;13.22;;;;;;;20.87;76.16;96769.64;1643015;86;25810;-76
2022/08/20 06:00:49;;;;;;;20.40;12.82;;;;;;;20.93;75.98;96776.69;1546136;92;26943;-77
2022/08/20 06:06:00;;;;;;;18.65;12.85;;;;;;;21.06;75.73;96772.68;1572216;90;25803;-76
2022/08/20 06:08:27;;;;;;;18.85;11.88;;;;;;;21.13;75.63;96771.75;1568644;90;25372;-76
2022/08/20 06:10:54;;;;;;;25.62;11.88;;;;;;;21.32;76.07;96773.76;1572485;90;26579;-76
2022/08/20 06:13:21;;;;;;;19.87;11.88;;;;;;;21.32;76.07;96773.76;1568640;90;25828;-76
2022/08/20 06:15:48;;;;;;;16.42;11.75;;;;;;;21.43;75.80;96775.25;1572524;90;27393;-76
2022/08/20 06:18:15;;;;;;;20.45;12.28;;;;;;;21.52;75.48;96782.52;1568547;90;25768;-76
2022/08/20 06:20:42;;;;;;;14.43;11.68;;;;;;;21.56;74.93;96766.27;1572370;90;25993;-76
2022/08/20 06:23:08;;;;;;;19.07;11.93;;;;;;;21.56;74.93;96766.27;1568670;90;26558;-76
2022/08/20 06:25:35;;;;;;;15.30;11.48;;;;;;;21.75;74.76;96785.48;1572409;90;25961;-76
2022/08/20 06:28:03;;;;;;;21.35;11.73;;;;;;;21.80;74.65;96788.98;1568373;90;28323;-76
2022/08/20 06:30:30;;;;;;;15.45;11.73;;;;;;;21.71;74.50;96757.81;1572466;90;25922;-77
2022/08/20 06:32:57;;;;;;;17.20;12.33;;;;;;;21.88;74.45;96744.34;1568451;90;25880;-76
2022/08/20 06:35:24;;;;;;;16.00;11.93;;;;;;;22.11;75.25;96765.97;1572543;90;26474;-76
2022/08/20 06:37:51;;;;;;;18.05;12.07;;;;;;;22.11;75.25;96765.97;1611812;83;25717;-77
2022/08/20 06:40:23;;;;;;;17.75;11.78;;;;;;;22.28;74.56;96764.05;1709692;82;27386;-76
2022/08/20 06:42:51;;;;;;;20.85;12.25;;;;;;;22.28;74.56;96764.05;1709620;82;25759;-76
2022/08/20 06:45:23;;;;;;;17.85;11.63;;;;;;;22.32;74.52;96748.59;1709718;82;25804;-76
2022/08/20 06:47:51;;;;;;;17.45;12.50;;;;;;;22.48;74.65;96759.55;1675451;84;25763;-76
2022/08/20 06:50:30;;;;;;;22.48;12.82;;;;;;;22.57;74.55;96759.69;1675232;84;25759;-76
2022/08/20 06:52:57;;;;;;;15.65;10.90;;;;;;;22.63;74.43;96765.33;1627710;87;27574;-76
2022/08/20 06:55:24;;;;;;;16.60;11.22;;;;;;;22.69;74.36;96764.13;1627733;87;25751;-76
2022/08/20 06:58:05;;;;;;;16.73;12.15;;;;;;;22.78;74.22;96771.95;1626038;87;25815;-76
2022/08/20 07:00:35;;;;;;;15.05;12.03;;;;;;;22.82;74.00;96777.67;1621001;88;25784;-76
2022/08/20 07:03:03;;;;;;;18.85;11.55;;;;;;;22.86;73.89;96772.61;1621009;88;26808;-76
2022/08/20 07:05:35;;;;;;;17.98;11.65;;;;;;;22.92;73.67;96770.59;1620790;88;27626;-76
2022/08/20 07:08:03;;;;;;;18.27;13.00;;;;;;;22.98;73.60;96769.34;1621235;88;25828;-76
2022/08/20 07:10:30;;;;;;;22.85;13.08;;;;;;;23.03;73.68;96764.31;1620943;88;25772;-76
2022/08/20 07:12:59;;;;;;;20.27;12.43;;;;;;;23.06;73.74;96770.03;1621048;88;25750;-76
2022/08/20 07:15:26;;;;;;;16.77;12.35;;;;;;;23.12;73.66;96762.47;1620710;88;25746;-76
2022/08/20 07:17:57;;;;;;;14.70;12.28;;;;;;;23.20;73.39;96762.55;1620740;88;27449;-77
2022/08/20 07:20:25;;;;;;;19.03;12.17;;;;;;;23.28;73.11;96768.73;1620917;88;26597;-76
2022/08/20 07:22:52;;;;;;;17.82;12.03;;;;;;;23.34;72.94;96759.22;1620995;88;25359;-76
2022/08/20 07:25:21;;;;;;;19.37;12.45;;;;;;;23.43;72.59;96761.23;1621004;88;25833;-76
2022/08/20 07:27:49;;;;;;;19.73;12.20;;;;;;;23.49;72.26;96763.59;1620875;88;25808;-76
2022/08/20 07:33:06;;;;;;;15.65;10.88;;;;;;;23.66;72.02;96768.48;1582853;90;25547;-76
2022/08/20 07:35:33;;;;;;;16.80;11.63;;;;;;;23.71;71.91;96757.33;1583114;90;25986;-76
2022/08/20 07:37:59;;;;;;;16.75;11.63;;;;;;;23.77;71.89;96751.97;1583073;90;25865;-77
2022/08/20 07:40:30;;;;;;;15.68;11.35;;;;;;;23.84;71.92;96744.63;1583045;90;25913;-76
2022/08/20 07:42:59;;;;;;;19.77;11.10;;;;;;;23.89;71.63;96738.44;1583119;90;28184;-77
2022/08/20 07:45:27;;;;;;;14.55;11.22;;;;;;;23.97;71.62;96736.30;1583139;90;25869;-77
2022/08/20 07:47:54;;;;;;;18.65;11.25;;;;;;;24.09;71.16;96736.30;1583141;90;25789;-76
2022/08/20 07:50:25;;;;;;;17.60;11.33;;;;;;;24.17;70.78;96740.48;1615197;88;25748;-76
2022/08/20 07:52:52;;;;;;;15.90;10.98;;;;;;;24.28;70.56;96739.13;1617591;88;25812;-76
2022/08/20 07:55:20;;;;;;;15.65;10.93;;;;;;;24.42;70.55;96737.66;1617458;88;27480;-77
2022/08/20 07:57:49;;;;;;;14.93;10.53;;;;;;;24.62;70.17;96738.52;1617249;88;25837;-77
2022/08/20 08:00:19;;;;;;;17.27;10.72;;;;;;;24.85;69.69;96740.64;1576835;90;26526;-76
2022/08/20 08:02:46;;;;;;;18.05;11.78;;;;;;;25.06;69.14;96738.13;1576897;90;26566;-77
2022/08/20 08:05:14;;;;;;;16.35;11.50;;;;;;;25.30;68.97;96740.47;1577119;90;25887;-76
2022/08/20 08:07:41;;;;;;;17.50;10.53;;;;;;;25.73;68.98;96736.39;1576947;89;28175;-77
2022/08/20 08:10:11;;;;;;;14.93;10.28;;;;;;;26.04;68.15;96731.52;1576854;90;25598;-76
2022/08/20 08:12:43;;;;;;;21.57;9.93;;;;;;;26.25;67.29;96731.64;1576811;90;25897;-77
2022/08/20 08:15:18;;;;;;;13.78;9.90;;;;;;;26.35;66.62;96732.70;1577027;90;25826;-77
2022/08/20 08:17:47;;;;;;;13.60;9.68;;;;;;;26.42;66.06;96731.64;1576961;90;25797;-77
2022/08/20 08:20:14;;;;;;;19.75;10.45;;;;;;;26.51;65.58;96726.08;1576814;90;27422;-77
2022/08/20 08:22:42;;;;;;;15.88;10.15;;;;;;;26.57;65.25;96726.12;1576940;90;25861;-77
2022/08/20 08:25:13;;;;;;;16.07;9.08;;;;;;;26.70;65.11;96725.09;1576998;90;25843;-77
2022/08/20 08:27:40;;;;;;;16.45;9.80;;;;;;;26.88;64.87;96726.67;1525347;92;25901;-77
2022/08/20 08:30:09;;;;;;;21.60;10.60;;;;;;;27.06;64.29;96736.29;1567946;90;25891;-77
2022/08/20 08:33:26;;;;;;;15.98;9.55;;;;;;;27.20;63.71;96729.38;1587947;90;27493;-77
2022/08/20 08:35:07;;;;;;;18.52;8.60;;;;;;;27.43;63.48;96719.37;1587993;90;25746;-77
2022/08/20 08:37:36;;;;;;;16.97;9.83;;;;;;;27.67;63.27;96724.28;1587712;90;25759;-77
2022/08/20 08:40:04;;;;;;;15.08;9.55;;;;;;;27.95;62.56;96722.59;1587996;90;25761;-77
2022/08/20 08:42:45;;;;;;;15.48;9.85;;;;;;;28.24;62.30;96720.31;1588007;90;25837;-77
2022/08/20 08:45:15;;;;;;;21.27;10.25;;;;;;;28.62;61.91;96716.69;1587917;90;27400;-77
2022/08/20 08:47:44;;;;;;;13.88;10.38;;;;;;;29.01;61.01;96719.42;1587891;89;25842;-77
2022/08/20 08:50:18;;;;;;;18.62;10.75;;;;;;;29.28;60.67;96717.11;1587788;90;25854;-77
2022/08/20 08:52:46;;;;;;;14.28;9.58;;;;;;;29.56;60.12;96711.08;1583087;90;25849;-77
2022/08/20 08:55:17;;;;;;;15.50;8.83;;;;;;;29.82;59.47;96700.13;1587940;89;25958;-77
2022/08/20 08:57:48;;;;;;;14.70;9.08;;;;;;;30.07;58.71;96693.30;1642979;86;27409;-77
2022/08/20 09:00:20;;;;;;;19.98;9.28;;;;;;;30.29;58.50;96691.37;1662260;86;33137;-77
2022/08/20 09:03:05;;;;;;;;;;;;;;;30.55;57.95;96688.09;1664787;86;25973;-77
2022/08/20 09:05:39;;;;;;;17.70;8.85;;;;;;;30.77;55.68;96688.08;1615623;88;25692;-77
2022/08/20 09:08:10;;;;;;;18.87;9.30;;;;;;;30.94;56.68;96686.30;1615500;88;25855;-77
2022/08/20 09:10:38;;;;;;;12.67;8.40;;;;;;;31.16;56.07;96684.87;1612785;88;27428;-77
2022/08/20 09:13:06;;;;;;;11.50;8.53;;;;;;;31.37;55.57;96687.37;1615183;88;25853;-77
2022/08/20 09:15:33;;;;;;;12.13;8.80;;;;;;;31.42;54.77;96674.52;1615303;88;25783;-75
2022/08/20 09:18:00;;;;;;;17.25;8.60;;;;;;;31.64;54.86;96671.05;1615501;88;25775;-75
2022/08/20 09:20:26;;;;;;;16.80;9.10;;;;;;;31.91;54.58;96662.84;1615040;88;25404;-76
2022/08/20 09:22:53;;;;;;;12.95;8.95;;;;;;;32.10;53.93;96646.09;1615484;88;28223;-75
2022/08/20 09:25:20;;;;;;;12.37;8.40;;;;;;;32.20;52.98;96649.13;1688729;83;25701;-76
2022/08/20 09:27:47;;;;;;;12.70;8.58;;;;;;;32.29;52.77;96646.09;1702444;83;26016;-75
2022/08/20 09:30:15;;;;;;;30.32;13.85;;;;;;;32.42;52.54;96649.52;1702475;83;25916;-75
2022/08/20 09:32:42;;;;;;;14.18;8.68;;;;;;;32.59;52.50;96649.03;1702386;83;25718;-74
2022/08/20 09:35:09;;;;;;;20.75;8.80;;;;;;;32.73;52.16;96642.89;1702296;83;27337;-74
2022/08/20 09:37:36;;;;;;;11.95;8.40;;;;;;;32.79;51.72;96647.00;1702231;83;25756;-74
2022/08/20 09:40:06;;;;;;;13.18;9.03;;;;;;;32.68;51.02;96643.19;1702477;83;25757;-74
2022/08/20 09:42:35;;;;;;;14.25;8.68;;;;;;;32.52;51.30;96644.11;1702351;83;26501;-74
2022/08/20 09:45:03;;;;;;;11.85;8.43;;;;;;;32.62;51.20;96644.66;1702513;83;25739;-74
2022/08/20 09:47:29;;;;;;;14.15;8.30;;;;;;;32.62;50.84;96638.48;1702342;83;26775;-74
2022/08/20 09:49:56;;;;;;;15.05;8.45;;;;;;;32.64;50.41;96647.31;1702252;83;25719;-74
2022/08/20 09:52:40;;;;;;;14.43;8.33;;;;;;;32.63;50.61;96651.87;1702174;83;25803;-74
2022/08/20 09:55:24;;;;;;;11.10;8.13;;;;;;;32.64;50.25;96646.50;1702600;83;25739;-75
2022/08/20 09:57:51;;;;;;;11.60;8.20;;;;;;;32.67;49.82;96647.97;1670420;85;25804;-75
2022/08/20 10:00:19;;;;;;;10.58;8.38;;;;;;;32.69;49.80;96655.98;1667201;83;27371;-75
2022/08/20 10:02:46;;;;;;;13.03;8.90;;;;;;;32.67;49.78;96648.56;1667001;83;25908;-75
2022/08/20 10:05:13;;;;;;;11.70;8.05;;;;;;;32.60;49.25;96655.43;1667263;86;25975;-75
2022/08/20 10:07:41;;;;;;;12.15;7.83;;;;;;;32.49;49.55;96658.81;1667324;83;26468;-74
2022/08/20 10:10:11;;;;;;;11.60;7.95;;;;;;;32.54;49.35;96647.34;1667239;86;26647;-77
2022/08/20 10:12:37;;;;;;;10.15;7.97;;;;;;;32.53;49.48;96655.51;1667412;83;27392;-75
2022/08/20 10:15:04;;;;;;;9.83;7.70;;;;;;;32.63;49.41;96649.08;1667424;83;25721;-75
2022/08/20 10:17:31;;;;;;;14.58;7.33;;;;;;;32.77;49.05;96646.56;1667629;83;25801;-75
2022/08/20 10:19:57;;;;;;;11.25;7.53;;;;;;;32.62;48.39;96653.86;1667455;83;26521;-75
2022/08/20 10:22:26;;;;;;;10.78;7.25;;;;;;;32.50;47.89;96649.26;1667437;83;25813;-77
2022/08/20 10:24:52;;;;;;;8.73;6.70;;;;;;;32.45;47.67;96648.78;1667532;86;27434;-77
2022/08/20 10:27:19;;;;;;;15.20;7.53;;;;;;;32.33;47.64;96645.58;1667553;83;25295;-77
2022/08/20 10:29:46;;;;;;;13.30;6.85;;;;;;;32.28;47.37;96646.45;1667560;83;25733;-77
2022/08/20 10:32:15;;;;;;;12.80;7.20;;;;;;;32.18;47.56;96646.48;1667526;84;25769;-77
2022/08/20 10:34:45;;;;;;;10.30;6.45;;;;;;;32.16;47.29;96636.23;1679976;82;25841;-77
2022/08/20 10:37:19;;;;;;;10.30;6.45;;;;;;;32.10;47.28;96630.75;1704731;82;27389;-77
2022/08/20 10:39:47;;;;;;;10.88;7.37;;;;;;;32.14;47.05;96624.63;1699894;82;25983;-77
2022/08/20 10:42:13;;;;;;;11.43;7.30;;;;;;;32.05;46.74;96621.27;1704787;82;25745;-77
2022/08/20 10:44:40;;;;;;;11.75;6.65;;;;;;;32.00;46.91;96625.15;1704530;82;25840;-77
2022/08/20 10:47:23;;;;;;;10.23;7.55;;;;;;;31.90;46.96;96631.33;1704727;82;26666;-77
2022/08/20 10:49:53;;;;;;;12.55;7.17;;;;;;;31.71;46.51;96627.17;1701766;82;28293;-77
2022/08/20 10:52:21;;;;;;;9.58;6.47;;;;;;;31.54;46.95;96629.77;1704576;82;25463;-77
2022/08/20 10:54:48;;;;;;;12.88;6.72;;;;;;;31.45;46.61;96627.78;1704821;82;25237;-77
2022/08/20 10:57:19;;;;;;;11.28;6.80;;;;;;;31.45;46.52;96627.78;1704756;82;26477;-77
2022/08/20 10:59:48;;;;;;;14.30;6.70;;;;;;;31.56;46.93;96623.23;1704974;82;25725;-77
2022/08/20 11:02:15;;;;;;;11.20;7.20;;;;;;;31.69;46.84;96620.56;1704801;82;27474;-78
2022/08/20 11:04:42;;;;;;;16.17;6.95;;;;;;;31.83;47.08;96612.48;1704748;82;25910;-77
2022/08/20 11:07:19;;;;;;;13.32;6.67;;;;;;;32.01;46.43;96612.81;1704460;82;25739;-78
2022/08/20 11:09:48;;;;;;;9.48;6.22;;;;;;;32.05;46.24;96610.09;1704453;82;26462;-78
2022/08/20 11:12:16;;;;;;;7.50;6.25;;;;;;;32.07;46.19;96602.16;1704753;82;25740;-77
2022/08/20 11:14:43;;;;;;;8.78;6.58;;;;;;;32.08;46.23;96592.62;1704779;82;27463;-77
2022/08/20 11:17:11;;;;;;;13.18;7.25;;;;;;;32.08;45.88;96584.24;1704764;82;25680;-77
2022/08/20 11:19:42;;;;;;;11.85;6.37;;;;;;;32.02;45.89;96587.91;1704682;82;25428;-77
2022/08/20 11:22:10;;;;;;;11.05;7.25;;;;;;;31.97;45.91;96588.82;1704945;82;25950;-78
2022/08/20 11:24:37;;;;;;;9.28;6.17;;;;;;;32.12;46.02;96576.75;1704860;82;25843;-78
2022/08/20 11:27:08;;;;;;;11.60;6.67;;;;;;;32.27;45.78;96580.02;1704637;82;27381;-78
2022/08/20 11:29:36;;;;;;;10.58;6.80;;;;;;;32.22;44.55;96581.75;1704531;82;25289;-78
2022/08/20 11:32:05;;;;;;;9.73;6.92;;;;;;;32.01;44.81;96577.12;1704332;82;25693;-77
2022/08/20 11:34:31;;;;;;;9.78;6.97;;;;;;;31.80;44.49;96570.55;1704637;82;25860;-78